createdAt,value
2023-03-07T00:04:14.136Z,12.73
2023-03-07T00:06:41.399Z,12.93
2023-03-07T00:09:08.477Z,8.90
2023-03-07T00:11:35.444Z,10.55
2023-03-07T00:14:02.504Z,11.25
2023-03-07T00:19:08.105Z,13.00
2023-03-07T00:21:35.219Z,12.05
2023-03-07T00:24:02.288Z,10.38
2023-03-07T00:26:29.330Z,10.57
2023-03-07T00:28:56.376Z,8.32
2023-03-07T00:34:06.310Z,10.68
2023-03-07T00:36:33.346Z,7.75
2023-03-07T00:39:00.399Z,7.63
2023-03-07T00:41:28.950Z,6.95
2023-03-07T00:43:56.322Z,7.47
2023-03-07T00:52:29.686Z,5.10
2023-03-07T00:57:23.704Z,5.10
2023-03-07T00:59:50.667Z,5.82
2023-03-07T01:02:17.658Z,4.90
2023-03-07T01:04:44.692Z,6.43
2023-03-07T01:09:53.418Z,4.78
2023-03-07T01:12:20.443Z,3.20
2023-03-07T01:14:50.537Z,3.67
2023-03-07T01:17:17.591Z,3.83
2023-03-07T01:19:44.577Z,3.25
2023-03-07T01:24:49.769Z,3.45
2023-03-07T01:27:16.786Z,4.10
2023-03-07T01:29:43.827Z,4.30
2023-03-07T01:32:10.902Z,3.72
2023-03-07T01:34:38.007Z,2.78
2023-03-07T01:39:53.696Z,3.20
2023-03-07T01:42:21.354Z,3.35
2023-03-07T01:45:00.333Z,2.65
2023-03-07T01:47:27.390Z,2.97
2023-03-07T01:49:55.082Z,2.90
2023-03-07T01:52:23.951Z,2.45
2023-03-07T01:54:52.840Z,2.45
2023-03-07T01:57:21.477Z,2.20
2023-03-07T01:59:50.258Z,2.47
2023-03-07T02:02:19.228Z,1.90
2023-03-07T02:05:01.543Z,2.60
2023-03-07T02:07:31.531Z,2.35
2023-03-07T02:10:12.588Z,2.10
2023-03-07T02:12:40.754Z,2.17
2023-03-07T02:15:11.135Z,2.70
2023-03-07T02:17:38.262Z,2.83
2023-03-07T02:20:14.732Z,2.95
2023-03-07T02:22:42.293Z,2.53
2023-03-07T02:25:10.057Z,2.00
2023-03-07T02:27:37.729Z,2.83
2023-03-07T02:30:05.625Z,2.40
2023-03-07T02:32:32.753Z,2.65
2023-03-07T02:34:59.862Z,3.28
2023-03-07T02:37:29.147Z,2.53
2023-03-07T02:42:34.202Z,2.92
2023-03-07T02:45:02.550Z,2.90
2023-03-07T02:47:29.644Z,2.83
2023-03-07T02:49:56.698Z,3.22
2023-03-07T02:52:23.838Z,3.17
2023-03-07T02:57:36.006Z,3.30
2023-03-07T03:00:06.813Z,3.15
2023-03-07T03:02:33.890Z,3.72
2023-03-07T03:05:00.956Z,3.53
2023-03-07T03:07:27.985Z,3.03
2023-03-07T03:12:27.845Z,3.70
2023-03-07T03:14:54.914Z,3.53
2023-03-07T03:17:21.987Z,4.15
2023-03-07T03:19:48.959Z,3.50
2023-03-07T03:22:16.071Z,4.30
2023-03-07T03:27:28.940Z,4.13
2023-03-07T03:29:56.078Z,4.45
2023-03-07T03:32:23.190Z,4.43
2023-03-07T03:34:50.200Z,4.78
2023-03-07T03:37:17.231Z,5.07
2023-03-07T03:39:58.411Z,4.85
2023-03-07T03:42:25.406Z,4.20
2023-03-07T03:44:52.523Z,5.18
2023-03-07T03:47:19.636Z,5.07
2023-03-07T03:49:46.657Z,5.05
2023-03-07T03:52:13.702Z,5.68
2023-03-07T03:54:40.684Z,5.60
2023-03-07T03:57:07.844Z,5.50
2023-03-07T03:59:34.972Z,5.78
2023-03-07T04:02:02.108Z,4.32
2023-03-07T04:04:29.174Z,5.65
2023-03-07T04:06:56.244Z,6.22
2023-03-07T04:09:23.266Z,6.68
2023-03-07T04:11:50.294Z,5.43
2023-03-07T04:14:17.337Z,6.43
2023-03-07T04:16:46.839Z,4.50
2023-03-07T04:19:13.895Z,5.43
2023-03-07T04:21:41.140Z,6.97
2023-03-07T04:24:08.994Z,5.32
2023-03-07T04:26:36.503Z,6.20
2023-03-07T04:29:04.328Z,6.70
2023-03-07T04:31:31.418Z,6.22
2023-03-07T04:33:58.655Z,6.00
2023-03-07T04:36:37.610Z,7.22
2023-03-07T04:39:04.694Z,6.72
2023-03-07T04:44:03.039Z,7.10
2023-03-07T04:46:30.132Z,6.95
2023-03-07T04:48:57.225Z,6.95
2023-03-07T04:54:10.663Z,6.57
2023-03-07T04:56:37.730Z,6.72
2023-03-07T04:59:04.759Z,8.18
2023-03-07T05:01:31.758Z,8.13
2023-03-07T05:03:58.772Z,8.38
2023-03-07T05:06:31.882Z,7.88
2023-03-07T05:08:58.860Z,7.47
2023-03-07T05:11:25.838Z,7.75
2023-03-07T05:13:53.210Z,9.60
2023-03-07T05:16:20.290Z,8.40
2023-03-07T05:18:47.330Z,7.80
2023-03-07T05:21:32.353Z,8.43
2023-03-07T05:23:59.371Z,8.55
2023-03-07T05:26:26.445Z,8.93
2023-03-07T05:28:53.715Z,9.30
2023-03-07T05:31:20.953Z,8.13
2023-03-07T05:33:47.971Z,8.60
2023-03-07T05:39:03.516Z,9.02
2023-03-07T05:41:30.529Z,5.70
2023-03-07T05:43:58.359Z,10.20
2023-03-07T05:49:05.236Z,9.70
2023-03-07T05:51:32.250Z,9.33
2023-03-07T05:54:00.979Z,7.82
2023-03-07T05:56:27.960Z,8.40
2023-03-07T05:58:55.114Z,8.52
2023-03-07T06:01:22.149Z,8.82
2023-03-07T06:03:49.197Z,7.65
2023-03-07T06:06:19.220Z,8.23
2023-03-07T06:08:46.221Z,9.40
2023-03-07T06:11:13.251Z,8.52
2023-03-07T06:13:40.288Z,8.35
2023-03-07T06:16:07.315Z,8.95
2023-03-07T06:18:34.362Z,8.50
2023-03-07T06:23:50.884Z,8.15
2023-03-07T06:26:17.906Z,8.15
2023-03-07T06:28:45.005Z,8.23
2023-03-07T06:31:13.409Z,7.45
2023-03-07T06:33:40.615Z,8.63
2023-03-07T06:38:43.196Z,7.80
2023-03-07T06:41:10.413Z,8.20
2023-03-07T06:43:37.917Z,8.60
2023-03-07T06:46:05.285Z,8.82
2023-03-07T06:48:34.698Z,8.60
2023-03-07T06:53:44.400Z,7.70
2023-03-07T06:56:11.515Z,8.15
2023-03-07T06:58:38.552Z,7.03
2023-03-07T07:01:05.645Z,7.68
2023-03-07T07:03:32.666Z,7.18
2023-03-07T07:08:44.094Z,7.68
2023-03-07T07:11:11.126Z,7.90
2023-03-07T07:13:38.196Z,7.53
2023-03-07T07:16:08.907Z,8.52
2023-03-07T07:18:36.400Z,7.55
2023-03-07T07:23:34.320Z,7.55
2023-03-07T07:26:01.629Z,7.18
2023-03-07T07:28:28.642Z,6.38
2023-03-07T07:30:55.762Z,6.28
2023-03-07T07:33:22.850Z,6.15
2023-03-07T07:36:02.343Z,7.00
2023-03-07T07:38:29.403Z,7.25
2023-03-07T07:40:56.513Z,4.97
2023-03-07T07:43:23.553Z,7.07
2023-03-07T07:45:50.701Z,6.28
2023-03-07T07:48:17.903Z,8.02
2023-03-07T07:53:31.519Z,6.78
2023-03-07T07:55:58.791Z,6.95
2023-03-07T07:58:26.229Z,7.22
2023-03-07T08:00:53.249Z,6.85
2023-03-07T08:03:20.293Z,7.68
2023-03-07T08:05:57.250Z,7.10
2023-03-07T08:08:24.346Z,7.90
2023-03-07T08:10:51.343Z,6.55
2023-03-07T08:13:18.446Z,7.55
2023-03-07T08:15:45.924Z,8.13
2023-03-07T08:18:13.496Z,8.02
2023-03-07T08:23:18.953Z,7.50
2023-03-07T08:25:46.221Z,6.90
2023-03-07T08:28:13.300Z,7.20
2023-03-07T08:30:40.313Z,7.57
2023-03-07T08:33:07.419Z,7.00
2023-03-07T08:35:35.653Z,6.57
2023-03-07T08:38:02.704Z,7.13
2023-03-07T08:40:30.281Z,7.90
2023-03-07T08:42:59.013Z,5.38
2023-03-07T08:45:26.779Z,7.25
2023-03-07T08:47:57.316Z,7.65
2023-03-07T08:50:25.978Z,6.40
2023-03-07T08:52:53.230Z,6.03
2023-03-07T08:55:20.526Z,6.85
2023-03-07T08:57:47.762Z,5.50
2023-03-07T09:00:15.082Z,6.07
2023-03-07T09:02:42.143Z,7.13
2023-03-07T09:05:09.370Z,5.03
2023-03-07T09:07:36.487Z,6.97
2023-03-07T09:10:05.888Z,5.22
2023-03-07T09:12:33.772Z,4.70
2023-03-07T09:15:00.842Z,4.72
2023-03-07T09:20:11.809Z,4.40
2023-03-07T09:22:38.953Z,5.35
2023-03-07T09:25:06.397Z,4.55
2023-03-07T09:27:34.158Z,4.65
2023-03-07T09:30:01.163Z,5.43
2023-03-07T09:32:42.670Z,4.80
2023-03-07T09:35:10.233Z,4.05
2023-03-07T09:37:37.342Z,4.32
2023-03-07T09:40:08.296Z,5.15
2023-03-07T09:42:44.611Z,4.47
2023-03-07T09:45:23.467Z,3.70
2023-03-07T09:48:09.998Z,3.97
2023-03-07T09:53:28.773Z,4.72
2023-03-07T09:55:57.425Z,3.83
2023-03-07T09:58:24.934Z,4.65
2023-03-07T10:00:57.328Z,5.00
2023-03-07T10:03:24.384Z,3.40
2023-03-07T10:05:52.811Z,3.85
2023-03-07T10:08:26.757Z,4.20
2023-03-07T10:11:03.339Z,3.50
2023-03-07T10:13:35.527Z,3.85
2023-03-07T10:16:05.560Z,3.60
2023-03-07T10:18:39.829Z,4.53
2023-03-07T10:21:22.243Z,3.42
2023-03-07T10:23:49.256Z,3.80
2023-03-07T10:26:22.129Z,3.60
2023-03-07T10:28:49.436Z,3.70
2023-03-07T10:31:16.518Z,2.83
2023-03-07T10:33:45.802Z,3.22
2023-03-07T10:36:19.419Z,2.90
2023-03-07T10:38:56.600Z,3.30
2023-03-07T10:41:23.904Z,4.07
2023-03-07T10:43:52.761Z,3.72
2023-03-07T10:46:25.855Z,2.97
2023-03-07T10:49:01.550Z,3.00
2023-03-07T10:51:47.520Z,3.10
2023-03-07T10:54:19.596Z,3.45
2023-03-07T10:57:05.468Z,3.42
2023-03-07T10:59:32.654Z,3.95
2023-03-07T11:04:46.459Z,3.42
2023-03-07T11:07:28.489Z,4.28
2023-03-07T11:09:56.167Z,3.10
2023-03-07T11:12:24.573Z,4.47
2023-03-07T11:14:53.295Z,2.95
2023-03-07T11:17:23.154Z,3.78
2023-03-07T11:19:53.910Z,3.90
2023-03-07T11:22:26.263Z,2.47
2023-03-07T11:24:59.219Z,2.75
2023-03-07T11:27:32.378Z,3.58
2023-03-07T11:30:06.939Z,4.45
2023-03-07T11:32:35.836Z,3.67
2023-03-07T11:35:08.250Z,3.60
2023-03-07T11:37:39.878Z,3.72
2023-03-07T11:40:24.458Z,3.90
2023-03-07T11:42:58.868Z,3.83
2023-03-07T11:45:48.088Z,3.00
2023-03-07T11:48:24.712Z,3.65
2023-03-07T11:50:54.661Z,3.03
2023-03-07T11:53:27.822Z,3.20
2023-03-07T11:56:13.516Z,2.83
2023-03-07T11:58:46.542Z,3.30
2023-03-07T12:01:32.333Z,3.42
2023-03-07T12:04:15.783Z,3.15
2023-03-07T12:06:49.053Z,3.33
2023-03-07T12:09:16.000Z,4.30
2023-03-07T12:11:51.894Z,4.43
2023-03-07T12:14:57.283Z,3.15
2023-03-07T12:17:42.898Z,3.95
2023-03-07T12:20:28.696Z,4.18
2023-03-07T12:23:28.176Z,3.25
2023-03-07T12:25:57.892Z,3.15
2023-03-07T12:28:35.437Z,4.07
2023-03-07T12:31:11.780Z,4.15
2023-03-07T12:33:48.024Z,4.03
2023-03-07T12:36:38.095Z,3.75
2023-03-07T12:39:25.412Z,3.35
2023-03-07T12:41:58.778Z,4.40
2023-03-07T12:44:31.491Z,4.05
2023-03-07T12:47:11.985Z,4.75
2023-03-07T12:49:54.003Z,4.38
2023-03-07T12:52:30.094Z,4.63
2023-03-07T12:54:59.964Z,5.15
2023-03-07T12:57:32.069Z,4.60
2023-03-07T13:00:02.519Z,4.60
2023-03-07T13:02:30.562Z,4.78
2023-03-07T13:05:00.072Z,3.78
2023-03-07T13:07:28.548Z,4.15
2023-03-07T13:09:56.607Z,5.25
2023-03-07T13:12:29.577Z,4.88
2023-03-07T13:14:58.250Z,4.45
2023-03-07T13:17:31.593Z,4.30
2023-03-07T13:19:59.770Z,5.10
2023-03-07T13:22:26.752Z,4.95
2023-03-07T13:24:54.444Z,5.65
2023-03-07T13:27:21.464Z,4.82
2023-03-07T13:30:21.469Z,5.25
2023-03-07T13:32:54.520Z,5.25
2023-03-07T13:35:30.222Z,4.63
2023-03-07T13:37:57.247Z,3.60
2023-03-07T13:40:26.740Z,6.38
2023-03-07T13:42:53.881Z,4.43
2023-03-07T13:45:39.389Z,4.68
2023-03-07T13:48:12.120Z,5.05
2023-03-07T13:50:40.354Z,4.30
2023-03-07T13:53:16.557Z,4.25
2023-03-07T13:55:50.740Z,4.72
2023-03-07T14:01:19.532Z,4.47
2023-03-07T14:03:49.483Z,3.92
2023-03-07T14:06:22.272Z,3.97
2023-03-07T14:08:49.901Z,4.40
2023-03-07T14:11:26.510Z,3.70
2023-03-07T14:14:15.828Z,4.25
2023-03-07T14:16:47.084Z,4.07
2023-03-07T14:19:31.954Z,4.82
2023-03-07T14:22:03.872Z,3.17
2023-03-07T14:24:30.878Z,3.65
2023-03-07T14:26:58.909Z,5.15
2023-03-07T14:29:27.019Z,3.47
2023-03-07T14:31:56.880Z,3.97
2023-03-07T14:34:31.504Z,4.95
2023-03-07T14:36:58.607Z,5.10
2023-03-07T14:39:27.046Z,4.63
2023-03-07T14:42:08.622Z,4.80
2023-03-07T14:44:49.640Z,6.45
2023-03-07T14:47:28.924Z,6.22
2023-03-07T14:50:05.052Z,6.15
2023-03-07T14:52:32.464Z,7.13
2023-03-07T14:55:01.766Z,8.60
2023-03-07T14:57:37.366Z,6.55
2023-03-07T15:00:04.626Z,10.52
2023-03-07T15:02:31.713Z,10.70
2023-03-07T15:04:58.719Z,11.90
2023-03-07T15:07:25.728Z,11.00
2023-03-07T15:09:52.766Z,10.38
2023-03-07T15:12:21.713Z,11.93
2023-03-07T15:14:53.834Z,10.63
2023-03-07T15:17:25.632Z,8.88
2023-03-07T15:19:55.486Z,8.68
2023-03-07T15:22:25.479Z,6.30
2023-03-07T15:24:52.981Z,5.93
2023-03-07T15:27:24.793Z,7.70
2023-03-07T15:29:51.955Z,6.45
2023-03-07T15:32:34.397Z,5.50
2023-03-07T15:35:10.977Z,4.65
2023-03-07T15:37:52.933Z,5.20
2023-03-07T15:40:26.084Z,6.00
2023-03-07T15:42:54.621Z,5.88
2023-03-07T15:45:41.446Z,6.70
2023-03-07T15:48:17.878Z,6.78
2023-03-07T15:50:51.476Z,6.53
2023-03-07T15:53:24.222Z,5.75
2023-03-07T15:55:58.825Z,6.95
2023-03-07T15:58:27.024Z,6.50
2023-03-07T16:01:13.079Z,6.40
2023-03-07T16:03:48.311Z,6.47
2023-03-07T16:06:44.922Z,6.63
2023-03-07T16:09:16.085Z,5.65
2023-03-07T16:11:43.113Z,7.90
2023-03-07T16:14:22.441Z,6.75
2023-03-07T16:16:49.712Z,6.78
2023-03-07T16:19:17.054Z,6.80
2023-03-07T16:21:44.072Z,6.55
2023-03-07T16:24:11.138Z,7.38
2023-03-07T16:26:39.069Z,7.47
2023-03-07T16:29:08.786Z,7.75
2023-03-07T16:31:35.874Z,8.35
2023-03-07T16:34:03.031Z,8.35
2023-03-07T16:36:30.118Z,9.20
2023-03-07T16:38:57.200Z,10.15
2023-03-07T16:41:24.188Z,9.35
2023-03-07T16:43:58.891Z,8.73
2023-03-07T16:46:26.647Z,8.45
2023-03-07T16:48:53.713Z,7.97
2023-03-07T16:51:22.174Z,8.15
2023-03-07T16:53:50.155Z,8.70
2023-03-07T16:56:21.488Z,8.25
2023-03-07T16:58:48.744Z,8.43
2023-03-07T17:01:15.787Z,7.97
2023-03-07T17:03:42.875Z,8.02
2023-03-07T17:06:13.360Z,8.02
2023-03-07T17:08:40.702Z,8.73
2023-03-07T17:11:24.516Z,7.35
2023-03-07T17:13:53.348Z,7.60
2023-03-07T17:16:20.727Z,7.35
2023-03-07T17:18:48.155Z,7.70
2023-03-07T17:21:16.077Z,7.70
2023-03-07T17:23:44.991Z,7.53
2023-03-07T17:26:38.314Z,7.88
2023-03-07T17:29:08.462Z,7.20
2023-03-07T17:31:35.952Z,7.60
2023-03-07T17:34:02.957Z,6.22
2023-03-07T17:36:32.204Z,6.22
2023-03-07T17:38:59.200Z,5.90
2023-03-07T17:41:26.240Z,6.00
2023-03-07T17:43:53.286Z,5.68
2023-03-07T17:46:20.399Z,7.18
2023-03-07T17:48:47.508Z,6.03
2023-03-07T17:51:14.529Z,6.75
2023-03-07T17:53:41.535Z,7.22
2023-03-07T17:56:09.572Z,6.82
2023-03-07T17:58:38.405Z,7.47
2023-03-07T18:01:08.204Z,7.13
2023-03-07T18:03:35.768Z,7.37
2023-03-07T18:06:02.809Z,8.13
2023-03-07T18:08:30.046Z,8.43
2023-03-07T18:11:03.429Z,7.65
2023-03-07T18:13:30.465Z,8.20
2023-03-07T18:15:58.036Z,7.63
2023-03-07T18:18:25.125Z,8.50
2023-03-07T18:20:59.133Z,8.90
2023-03-07T18:23:26.254Z,8.50
2023-03-07T18:25:56.914Z,8.30
2023-03-07T18:28:24.936Z,7.97
2023-03-07T18:30:57.760Z,8.90
2023-03-07T18:33:25.119Z,8.88
2023-03-07T18:35:52.350Z,9.02
2023-03-07T18:38:19.400Z,9.32
2023-03-07T18:40:47.360Z,10.00
2023-03-07T18:43:15.034Z,9.15
2023-03-07T18:45:46.280Z,9.88
2023-03-07T18:48:13.251Z,8.68
2023-03-07T18:50:40.665Z,9.00
2023-03-07T18:53:08.273Z,8.77
2023-03-07T18:55:37.875Z,7.22
2023-03-07T18:58:05.062Z,8.02
2023-03-07T19:00:32.430Z,8.70
2023-03-07T19:02:59.476Z,7.97
2023-03-07T19:05:26.505Z,8.55
2023-03-07T19:07:53.466Z,7.75
2023-03-07T19:10:20.593Z,8.77
2023-03-07T19:12:47.637Z,8.43
2023-03-07T19:15:14.699Z,8.20
2023-03-07T19:17:42.284Z,7.88
2023-03-07T19:20:09.669Z,8.23
2023-03-07T19:22:36.679Z,8.48
2023-03-07T19:25:03.828Z,7.57
2023-03-07T19:27:31.950Z,9.02
2023-03-07T19:29:58.956Z,10.38
2023-03-07T19:32:27.032Z,8.82
2023-03-07T19:34:54.105Z,8.02
2023-03-07T19:37:21.072Z,9.32
2023-03-07T19:39:51.657Z,9.15
2023-03-07T19:42:18.615Z,8.25
2023-03-07T19:44:45.668Z,9.00
2023-03-07T19:47:12.672Z,9.63
2023-03-07T19:49:39.700Z,8.63
2023-03-07T19:52:06.673Z,8.93
2023-03-07T19:54:33.696Z,8.57
2023-03-07T19:57:00.666Z,9.57
2023-03-07T19:59:27.681Z,8.77
2023-03-07T20:01:54.687Z,9.13
2023-03-07T20:04:21.714Z,9.80
2023-03-07T20:06:48.771Z,12.15
2023-03-07T20:09:15.769Z,10.93
2023-03-07T20:11:43.299Z,11.27
2023-03-07T20:14:10.865Z,11.13
2023-03-07T20:16:41.558Z,12.43
2023-03-07T20:19:09.370Z,11.88
2023-03-07T20:21:36.692Z,14.85
2023-03-07T20:24:04.699Z,11.80
2023-03-07T20:26:33.457Z,13.80
2023-03-07T20:29:01.344Z,14.05
2023-03-07T20:31:28.983Z,15.23
2023-03-07T20:33:57.886Z,15.80
2023-03-07T20:36:26.367Z,14.13
2023-03-07T20:38:54.805Z,15.35
2023-03-07T20:41:22.989Z,13.05
2023-03-07T20:43:50.783Z,15.70
2023-03-07T20:46:18.760Z,13.23
2023-03-07T20:48:46.223Z,13.38
2023-03-07T20:51:21.143Z,11.35
2023-03-07T20:53:49.305Z,9.90
2023-03-07T20:56:16.713Z,9.32
2023-03-07T20:58:43.860Z,10.00
2023-03-07T21:01:11.822Z,10.02
2023-03-07T21:03:38.913Z,10.63
2023-03-07T21:06:06.321Z,9.48
2023-03-07T21:08:34.505Z,10.30
2023-03-07T21:11:02.589Z,8.95
2023-03-07T21:13:29.963Z,10.77
2023-03-07T21:15:58.374Z,11.25
2023-03-07T21:18:25.647Z,10.68
2023-03-07T21:20:52.859Z,11.27
2023-03-07T21:23:19.893Z,11.30
2023-03-07T21:25:47.196Z,10.93
2023-03-07T21:28:14.240Z,12.57
2023-03-07T21:30:41.291Z,13.25
2023-03-07T21:33:08.316Z,12.27
2023-03-07T21:35:39.452Z,12.82
2023-03-07T21:38:06.859Z,12.60
2023-03-07T21:40:34.042Z,13.48
2023-03-07T21:43:01.048Z,14.65
2023-03-07T21:45:28.173Z,13.90
2023-03-07T21:47:55.303Z,14.93
2023-03-07T21:50:22.361Z,16.63
2023-03-07T21:52:49.424Z,15.15
2023-03-07T21:55:17.079Z,16.13
2023-03-07T21:57:44.128Z,17.10
2023-03-07T22:00:15.216Z,17.00
2023-03-07T22:02:42.328Z,16.10
2023-03-07T22:05:09.626Z,18.05
2023-03-07T22:07:36.764Z,17.27
2023-03-07T22:10:03.805Z,17.02
2023-03-07T22:12:30.856Z,18.52
2023-03-07T22:14:57.849Z,17.80
2023-03-07T22:17:24.956Z,17.13
2023-03-07T22:19:52.037Z,16.40
2023-03-07T22:22:22.449Z,15.85
2023-03-07T22:24:49.889Z,16.52
2023-03-07T22:27:16.907Z,17.00
2023-03-07T22:29:43.947Z,16.02
2023-03-07T22:32:11.134Z,13.88
2023-03-07T22:34:38.372Z,13.63
2023-03-07T22:37:05.452Z,14.80
2023-03-07T22:39:32.525Z,14.20
2023-03-07T22:41:59.523Z,12.38
2023-03-07T22:44:26.526Z,12.77
2023-03-07T22:46:53.574Z,10.93
2023-03-07T22:49:20.575Z,10.93
2023-03-07T22:51:47.621Z,10.73
2023-03-07T22:54:14.647Z,10.25
2023-03-07T22:56:41.646Z,9.52
2023-03-07T22:59:08.732Z,9.45
2023-03-07T23:01:35.751Z,7.15
2023-03-07T23:04:03.062Z,8.55
2023-03-07T23:06:30.980Z,9.02
2023-03-07T23:08:59.530Z,8.90
2023-03-07T23:11:27.592Z,7.88
2023-03-07T23:13:54.715Z,8.07
2023-03-07T23:16:23.415Z,7.85
2023-03-07T23:18:50.694Z,8.10
2023-03-07T23:21:18.763Z,7.75
2023-03-07T23:23:46.165Z,9.68
2023-03-07T23:26:17.395Z,8.32
2023-03-07T23:28:44.521Z,8.43
2023-03-07T23:31:18.892Z,8.52
2023-03-07T23:33:46.081Z,9.13
2023-03-07T23:36:13.392Z,9.48
2023-03-07T23:38:40.980Z,9.38
2023-03-07T23:41:08.002Z,9.93
2023-03-07T23:43:34.998Z,9.38
2023-03-07T23:46:02.086Z,10.77
2023-03-07T23:48:29.153Z,10.00
2023-03-07T23:50:56.184Z,10.63
2023-03-07T23:53:23.274Z,11.40
2023-03-07T23:55:50.365Z,10.38
2023-03-07T23:58:17.619Z,10.52
